sensor_id;sensor_type;location;lat;lon;timestamp;pressure;altitude;pressure_sealevel;temperature;humidity
69751;BME280;57335;52.288;6.056;2023-01-29T00:01:31;102992.25;;;2.70;96.07
69751;BME280;57335;52.288;6.056;2023-01-29T00:03:57;102995.69;;;2.71;96.86
69751;BME280;57335;52.288;6.056;2023-01-29T00:06:24;102999.09;;;2.71;96.56
69751;BME280;57335;52.288;6.056;2023-01-29T00:08:50;102998.16;;;2.72;96.87
69751;BME280;57335;52.288;6.056;2023-01-29T00:11:16;102992.13;;;2.72;95.86
69751;BME280;57335;52.288;6.056;2023-01-29T00:13:43;102971.09;;;2.64;95.25
69751;BME280;57335;52.288;6.056;2023-01-29T00:16:09;102965.75;;;2.67;95.06
69751;BME280;57335;52.288;6.056;2023-01-29T00:18:40;102955.56;;;2.64;95.12
69751;BME280;57335;52.288;6.056;2023-01-29T00:21:14;102966.47;;;2.69;95.66
69751;BME280;57335;52.288;6.056;2023-01-29T00:23:41;102963.88;;;2.69;96.15
69751;BME280;57335;52.288;6.056;2023-01-29T00:26:08;102951.84;;;2.68;95.92
69751;BME280;57335;52.288;6.056;2023-01-29T00:28:35;102945.53;;;2.72;96.05
69751;BME280;57335;52.288;6.056;2023-01-29T00:33:34;102944.41;;;2.76;96.03
69751;BME280;57335;52.288;6.056;2023-01-29T00:36:03;102939.31;;;2.74;95.90
69751;BME280;57335;52.288;6.056;2023-01-29T00:38:31;102947.72;;;2.78;95.93
69751;BME280;57335;52.288;6.056;2023-01-29T00:41:10;102941.09;;;2.74;96.05
69751;BME280;57335;52.288;6.056;2023-01-29T00:43:36;102951.97;;;2.79;96.04
69751;BME280;57335;52.288;6.056;2023-01-29T00:46:02;102953.72;;;2.78;96.01
69751;BME280;57335;52.288;6.056;2023-01-29T00:48:29;102960.66;;;2.78;96.16
69751;BME280;57335;52.288;6.056;2023-01-29T00:50:56;102943.69;;;2.74;95.96
69751;BME280;57335;52.288;6.056;2023-01-29T00:53:22;102951.03;;;2.80;96.35
69751;BME280;57335;52.288;6.056;2023-01-29T00:55:48;102945.84;;;2.80;96.35
69751;BME280;57335;52.288;6.056;2023-01-29T00:58:15;102937.59;;;2.75;95.99
69751;BME280;57335;52.288;6.056;2023-01-29T01:00:41;102941.50;;;2.80;95.88
69751;BME280;57335;52.288;6.056;2023-01-29T01:03:09;102944.31;;;2.77;96.09
69751;BME280;57335;52.288;6.056;2023-01-29T01:05:35;102951.03;;;2.80;96.74
69751;BME280;57335;52.288;6.056;2023-01-29T01:08:01;102953.63;;;2.80;96.79
69751;BME280;57335;52.288;6.056;2023-01-29T01:10:31;102938.41;;;2.75;96.76
69751;BME280;57335;52.288;6.056;2023-01-29T01:13:02;102942.75;;;2.75;96.50
69751;BME280;57335;52.288;6.056;2023-01-29T01:15:33;102937.25;;;2.79;96.93
69751;BME280;57335;52.288;6.056;2023-01-29T01:18:01;102928.88;;;2.76;97.03
69751;BME280;57335;52.288;6.056;2023-01-29T01:20:30;102934.78;;;2.78;97.13
69751;BME280;57335;52.288;6.056;2023-01-29T01:22:56;102932.19;;;2.78;96.79
69751;BME280;57335;52.288;6.056;2023-01-29T01:25:23;102917.47;;;2.78;97.23
69751;BME280;57335;52.288;6.056;2023-01-29T01:27:55;102923.50;;;2.79;97.19
69751;BME280;57335;52.288;6.056;2023-01-29T01:30:22;102923.50;;;2.79;97.04
69751;BME280;57335;52.288;6.056;2023-01-29T01:32:49;102924.22;;;2.81;97.07
69751;BME280;57335;52.288;6.056;2023-01-29T01:35:16;102926.81;;;2.81;97.37
69751;BME280;57335;52.288;6.056;2023-01-29T01:37:42;102922.66;;;2.78;97.21
69751;BME280;57335;52.288;6.056;2023-01-29T01:40:16;102936.44;;;2.79;97.12
69751;BME280;57335;52.288;6.056;2023-01-29T01:42:44;102935.72;;;2.77;97.43
69751;BME280;57335;52.288;6.056;2023-01-29T01:45:23;102945.03;;;2.79;97.08
69751;BME280;57335;52.288;6.056;2023-01-29T01:47:55;102952.72;;;2.81;97.20
69751;BME280;57335;52.288;6.056;2023-01-29T01:50:35;102956.84;;;2.84;97.33
69751;BME280;57335;52.288;6.056;2023-01-29T01:53:13;102952.72;;;2.81;96.98
69751;BME280;57335;52.288;6.056;2023-01-29T01:55:44;102953.22;;;2.86;96.86
69751;BME280;57335;52.288;6.056;2023-01-29T01:58:17;102941.41;;;2.82;96.54
69751;BME280;57335;52.288;6.056;2023-01-29T02:00:46;102949.91;;;2.84;96.32
69751;BME280;57335;52.288;6.056;2023-01-29T02:03:13;102952.72;;;2.81;96.53
69751;BME280;57335;52.288;6.056;2023-01-29T02:05:40;102951.66;;;2.84;96.12
69751;BME280;57335;52.288;6.056;2023-01-29T02:08:06;102947.41;;;2.83;96.34
69751;BME280;57335;52.288;6.056;2023-01-29T02:10:51;102952.28;;;2.87;96.49
69751;BME280;57335;52.288;6.056;2023-01-29T02:13:18;102946.59;;;2.82;96.62
69751;BME280;57335;52.288;6.056;2023-01-29T02:15:45;102952.28;;;2.87;96.23
69751;BME280;57335;52.288;6.056;2023-01-29T02:18:13;102950.63;;;2.86;96.23
69751;BME280;57335;52.288;6.056;2023-01-29T02:20:43;102947.13;;;2.87;96.29
69751;BME280;57335;52.288;6.056;2023-01-29T02:26:02;102952.28;;;2.87;96.27
69751;BME280;57335;52.288;6.056;2023-01-29T02:31:27;102955.72;;;2.88;96.34
69751;BME280;57335;52.288;6.056;2023-01-29T02:34:05;102946.47;;;2.84;96.20
69751;BME280;57335;52.288;6.056;2023-01-29T02:36:45;102964.28;;;2.88;95.85
69751;BME280;57335;52.288;6.056;2023-01-29T02:47:29;102959.25;;;2.87;95.92
69751;BME280;57335;52.288;6.056;2023-01-29T02:50:20;102968.34;;;2.92;96.34
69751;BME280;57335;52.288;6.056;2023-01-29T02:52:59;102967.75;;;2.89;96.30
69751;BME280;57335;52.288;6.056;2023-01-29T02:55:39;102966.59;;;2.93;96.48
69751;BME280;57335;52.288;6.056;2023-01-29T02:58:20;102955.59;;;2.89;96.00
69751;BME280;57335;52.288;6.056;2023-01-29T03:00:51;102955.50;;;2.91;96.13
69751;BME280;57335;52.288;6.056;2023-01-29T03:03:30;102955.50;;;2.91;95.78
69751;BME280;57335;52.288;6.056;2023-01-29T03:06:17;102951.16;;;2.91;96.18
69751;BME280;57335;52.288;6.056;2023-01-29T03:08:52;102954.66;;;2.90;96.18
69751;BME280;57335;52.288;6.056;2023-01-29T03:11:22;102945.16;;;2.91;96.30
69751;BME280;57335;52.288;6.056;2023-01-29T03:16:50;102929.72;;;2.89;96.59
69751;BME280;57335;52.288;6.056;2023-01-29T03:19:26;102916.03;;;2.87;96.34
69751;BME280;57335;52.288;6.056;2023-01-29T03:21:57;102920.06;;;2.91;96.32
69751;BME280;57335;52.288;6.056;2023-01-29T03:24:28;102909.72;;;2.91;96.45
69751;BME280;57335;52.288;6.056;2023-01-29T03:27:00;102910.63;;;2.90;96.22
69751;BME280;57335;52.288;6.056;2023-01-29T03:29:31;102911.50;;;2.91;96.31
69751;BME280;57335;52.288;6.056;2023-01-29T03:32:00;102906.31;;;2.91;96.31
69751;BME280;57335;52.288;6.056;2023-01-29T03:34:28;102912.31;;;2.91;96.66
69751;BME280;57335;52.288;6.056;2023-01-29T03:37:03;102896.38;;;2.85;96.68
69751;BME280;57335;52.288;6.056;2023-01-29T03:39:32;102898.84;;;2.86;97.09
69751;BME280;57335;52.288;6.056;2023-01-29T03:42:11;102896.97;;;2.88;96.86
69751;BME280;57335;52.288;6.056;2023-01-29T03:45:01;102881.66;;;2.85;96.97
69751;BME280;57335;52.288;6.056;2023-01-29T03:48:02;102884.16;;;2.87;96.98
69751;BME280;57335;52.288;6.056;2023-01-29T03:53:26;102868.19;;;2.80;96.69
69751;BME280;57335;52.288;6.056;2023-01-29T03:59:00;102874.78;;;2.84;96.78
69751;BME280;57335;52.288;6.056;2023-01-29T04:01:36;102862.06;;;2.81;97.16
69751;BME280;57335;52.288;6.056;2023-01-29T04:04:14;102866.41;;;2.80;96.80
69751;BME280;57335;52.288;6.056;2023-01-29T04:06:44;102850.38;;;2.75;96.80
69751;BME280;57335;52.288;6.056;2023-01-29T04:09:24;102854.94;;;2.85;96.53
69751;BME280;57335;52.288;6.056;2023-01-29T04:11:58;102851.50;;;2.84;96.35
69751;BME280;57335;52.288;6.056;2023-01-29T04:14:27;102844.56;;;2.85;96.60
69751;BME280;57335;52.288;6.056;2023-01-29T04:16:56;102844.78;;;2.82;96.39
69751;BME280;57335;52.288;6.056;2023-01-29T04:19:25;102853.38;;;2.82;96.45
69751;BME280;57335;52.288;6.056;2023-01-29T04:22:01;102847.69;;;2.77;96.54
69751;BME280;57335;52.288;6.056;2023-01-29T04:24:28;102855.03;;;2.83;96.50
69751;BME280;57335;52.288;6.056;2023-01-29T04:27:42;102863.72;;;2.82;96.28
69751;BME280;57335;52.288;6.056;2023-01-29T04:30:41;102868.19;;;2.80;96.27
69751;BME280;57335;52.288;6.056;2023-01-29T04:41:32;102849.03;;;2.70;96.54
69751;BME280;57335;52.288;6.056;2023-01-29T04:44:10;102842.22;;;2.69;96.92
69751;BME280;57335;52.288;6.056;2023-01-29T04:46:45;102841.16;;;2.71;96.62
69751;BME280;57335;52.288;6.056;2023-01-29T04:49:25;102847.25;;;2.70;96.71
69751;BME280;57335;52.288;6.056;2023-01-29T04:52:04;102846.44;;;2.70;96.84
69751;BME280;57335;52.288;6.056;2023-01-29T04:54:49;102839.63;;;2.69;96.94
69751;BME280;57335;52.288;6.056;2023-01-29T04:58:02;102826.88;;;2.66;96.88
69751;BME280;57335;52.288;6.056;2023-01-29T05:00:42;102840.63;;;2.66;96.73
69751;BME280;57335;52.288;6.056;2023-01-29T05:03:11;102833.00;;;2.65;96.59
69751;BME280;57335;52.288;6.056;2023-01-29T05:05:40;102841.47;;;2.67;96.78
69751;BME280;57335;52.288;6.056;2023-01-29T05:08:10;102845.63;;;2.69;96.90
69751;BME280;57335;52.288;6.056;2023-01-29T05:10:38;102843.13;;;2.68;96.55
69751;BME280;57335;52.288;6.056;2023-01-29T05:13:08;102824.50;;;2.63;96.16
69751;BME280;57335;52.288;6.056;2023-01-29T05:15:38;102833.72;;;2.67;95.85
69751;BME280;57335;52.288;6.056;2023-01-29T05:18:07;102832.88;;;2.66;96.41
69751;BME280;57335;52.288;6.056;2023-01-29T05:20:36;102855.16;;;2.69;96.36
69751;BME280;57335;52.288;6.056;2023-01-29T05:23:04;102831.50;;;2.60;96.27
69751;BME280;57335;52.288;6.056;2023-01-29T05:25:34;102849.97;;;2.69;96.09
69751;BME280;57335;52.288;6.056;2023-01-29T05:28:00;102851.63;;;2.70;96.28
69751;BME280;57335;52.288;6.056;2023-01-29T05:30:26;102856.06;;;2.68;96.20
69751;BME280;57335;52.288;6.056;2023-01-29T05:32:53;102863.13;;;2.66;95.98
69751;BME280;57335;52.288;6.056;2023-01-29T05:35:19;102865.78;;;2.64;96.07
69751;BME280;57335;52.288;6.056;2023-01-29T05:37:45;102862.47;;;2.62;96.40
69751;BME280;57335;52.288;6.056;2023-01-29T05:40:12;102868.59;;;2.61;96.66
69751;BME280;57335;52.288;6.056;2023-01-29T05:42:38;102866.03;;;2.61;96.37
69751;BME280;57335;52.288;6.056;2023-01-29T05:45:05;102857.41;;;2.60;96.13
69751;BME280;57335;52.288;6.056;2023-01-29T05:47:31;102850.78;;;2.56;96.10
69751;BME280;57335;52.288;6.056;2023-01-29T05:49:57;102845.41;;;2.59;95.59
69751;BME280;57335;52.288;6.056;2023-01-29T05:52:24;102819.53;;;2.47;95.81
69751;BME280;57335;52.288;6.056;2023-01-29T05:54:50;102827.47;;;2.56;95.90
69751;BME280;57335;52.288;6.056;2023-01-29T05:57:17;102808.56;;;2.43;95.71
69751;BME280;57335;52.288;6.056;2023-01-29T05:59:43;102832.97;;;2.52;95.78
69751;BME280;57335;52.288;6.056;2023-01-29T06:02:09;102822.84;;;2.49;95.77
69751;BME280;57335;52.288;6.056;2023-01-29T06:04:36;102817.88;;;2.46;95.74
69751;BME280;57335;52.288;6.056;2023-01-29T06:07:02;102824.59;;;2.48;95.92
69751;BME280;57335;52.288;6.056;2023-01-29T06:09:28;102817.88;;;2.46;95.18
69751;BME280;57335;52.288;6.056;2023-01-29T06:11:55;102811.88;;;2.45;95.40
69751;BME280;57335;52.288;6.056;2023-01-29T06:14:21;102809.47;;;2.42;95.77
69751;BME280;57335;52.288;6.056;2023-01-29T06:16:48;102818.91;;;2.43;95.89
69751;BME280;57335;52.288;6.056;2023-01-29T06:19:14;102811.25;;;2.42;95.68
69751;BME280;57335;52.288;6.056;2023-01-29T06:21:40;102803.47;;;2.42;94.82
69751;BME280;57335;52.288;6.056;2023-01-29T06:24:07;102786.09;;;2.31;95.25
69751;BME280;57335;52.288;6.056;2023-01-29T06:26:34;102807.09;;;2.39;95.75
69751;BME280;57335;52.288;6.056;2023-01-29T06:29:00;102799.44;;;2.37;95.59
69751;BME280;57335;52.288;6.056;2023-01-29T06:31:26;102796.03;;;2.37;95.68
69751;BME280;57335;52.288;6.056;2023-01-29T06:34:04;102804.63;;;2.37;95.71
69751;BME280;57335;52.288;6.056;2023-01-29T06:36:30;102796.94;;;2.36;95.46
69751;BME280;57335;52.288;6.056;2023-01-29T06:38:56;102802.03;;;2.37;94.83
69751;BME280;57335;52.288;6.056;2023-01-29T06:41:23;102801.22;;;2.37;94.99
69751;BME280;57335;52.288;6.056;2023-01-29T06:43:49;102803.06;;;2.35;95.30
69751;BME280;57335;52.288;6.056;2023-01-29T06:46:16;102786.94;;;2.31;94.48
69751;BME280;57335;52.288;6.056;2023-01-29T06:48:42;102788.88;;;2.28;94.27
69751;BME280;57335;52.288;6.056;2023-01-29T06:51:09;102789.59;;;2.30;95.33
69751;BME280;57335;52.288;6.056;2023-01-29T06:53:37;102789.50;;;2.31;95.48
69751;BME280;57335;52.288;6.056;2023-01-29T06:56:04;102790.34;;;2.32;95.03
69751;BME280;57335;52.288;6.056;2023-01-29T06:58:32;102793.63;;;2.34;94.81
69751;BME280;57335;52.288;6.056;2023-01-29T07:01:03;102778.34;;;2.31;95.27
69751;BME280;57335;52.288;6.056;2023-01-29T07:03:30;102789.41;;;2.33;94.90
69751;BME280;57335;52.288;6.056;2023-01-29T07:05:56;102774.91;;;2.30;95.43
69751;BME280;57335;52.288;6.056;2023-01-29T07:08:23;102781.03;;;2.29;95.16
69751;BME280;57335;52.288;6.056;2023-01-29T07:10:49;102786.59;;;2.36;94.40
69751;BME280;57335;52.288;6.056;2023-01-29T07:13:15;102788.38;;;2.35;95.05
69751;BME280;57335;52.288;6.056;2023-01-29T07:15:42;102792.59;;;2.36;94.99
69751;BME280;57335;52.288;6.056;2023-01-29T07:18:08;102791.59;;;2.39;95.03
69751;BME280;57335;52.288;6.056;2023-01-29T07:20:35;102804.94;;;2.33;94.31
69751;BME280;57335;52.288;6.056;2023-01-29T07:23:01;102811.44;;;2.38;94.59
69751;BME280;57335;52.288;6.056;2023-01-29T07:25:27;102806.25;;;2.38;94.50
69751;BME280;57335;52.288;6.056;2023-01-29T07:27:54;102803.56;;;2.40;94.66
69751;BME280;57335;52.288;6.056;2023-01-29T07:30:20;102801.00;;;2.40;94.55
69751;BME280;57335;52.288;6.056;2023-01-29T07:32:47;102805.25;;;2.41;94.47
69751;BME280;57335;52.288;6.056;2023-01-29T07:35:13;102798.41;;;2.40;93.98
69751;BME280;57335;52.288;6.056;2023-01-29T07:37:39;102785.38;;;2.29;93.26
69751;BME280;57335;52.288;6.056;2023-01-29T07:40:06;102779.25;;;2.30;92.80
69751;BME280;57335;52.288;6.056;2023-01-29T07:42:32;102771.09;;;2.23;93.44
69751;BME280;57335;52.288;6.056;2023-01-29T07:44:59;102775.94;;;2.28;93.37
69751;BME280;57335;52.288;6.056;2023-01-29T07:47:25;102772.84;;;2.23;93.08
69751;BME280;57335;52.288;6.056;2023-01-29T07:49:51;102775.72;;;2.18;92.58
69751;BME280;57335;52.288;6.056;2023-01-29T07:52:18;102784.22;;;2.20;92.89
69751;BME280;57335;52.288;6.056;2023-01-29T07:54:47;102775.63;;;2.19;92.92
69751;BME280;57335;52.288;6.056;2023-01-29T07:57:13;102758.75;;;2.14;92.34
69751;BME280;57335;52.288;6.056;2023-01-29T07:59:40;102758.56;;;2.17;93.01
69751;BME280;57335;52.288;6.056;2023-01-29T08:02:07;102758.88;;;2.25;93.05
69751;BME280;57335;52.288;6.056;2023-01-29T08:04:34;102750.69;;;2.18;92.15
69751;BME280;57335;52.288;6.056;2023-01-29T08:07:00;102740.34;;;2.18;92.89
69751;BME280;57335;52.288;6.056;2023-01-29T08:09:26;102754.03;;;2.21;92.49
69751;BME280;57335;52.288;6.056;2023-01-29T08:11:53;102752.16;;;2.23;92.28
69751;BME280;57335;52.288;6.056;2023-01-29T08:14:19;102749.34;;;2.26;91.97
69751;BME280;57335;52.288;6.056;2023-01-29T08:16:45;102752.16;;;2.23;92.42
69751;BME280;57335;52.288;6.056;2023-01-29T08:19:12;102755.56;;;2.23;92.21
69751;BME280;57335;52.288;6.056;2023-01-29T08:21:38;102747.50;;;2.28;92.41
69751;BME280;57335;52.288;6.056;2023-01-29T08:24:05;102724.63;;;2.22;92.04
69751;BME280;57335;52.288;6.056;2023-01-29T08:26:31;102735.50;;;2.27;92.05
69751;BME280;57335;52.288;6.056;2023-01-29T08:28:58;102724.44;;;2.25;92.43
69751;BME280;57335;52.288;6.056;2023-01-29T08:31:24;102728.66;;;2.26;92.71
69751;BME280;57335;52.288;6.056;2023-01-29T08:33:52;102711.50;;;2.25;92.46
69751;BME280;57335;52.288;6.056;2023-01-29T08:36:19;102722.97;;;2.33;93.11
69751;BME280;57335;52.288;6.056;2023-01-29T08:38:45;102739.69;;;2.40;93.48
69751;BME280;57335;52.288;6.056;2023-01-29T08:41:11;102732.69;;;2.43;93.19
69751;BME280;57335;52.288;6.056;2023-01-29T08:43:38;102742.41;;;2.52;93.46
69751;BME280;57335;52.288;6.056;2023-01-29T08:46:04;102734.31;;;2.56;92.82
69751;BME280;57335;52.288;6.056;2023-01-29T08:48:31;102726.53;;;2.56;93.55
69751;BME280;57335;52.288;6.056;2023-01-29T08:50:59;102721.88;;;2.62;93.00
69751;BME280;57335;52.288;6.056;2023-01-29T08:53:26;102724.75;;;2.70;92.04
69751;BME280;57335;52.288;6.056;2023-01-29T08:55:53;102718.66;;;2.71;92.17
69751;BME280;57335;52.288;6.056;2023-01-29T08:58:19;102715.63;;;2.77;92.67
69751;BME280;57335;52.288;6.056;2023-01-29T09:00:45;102720.50;;;2.82;92.05
69751;BME280;57335;52.288;6.056;2023-01-29T09:03:12;102710.13;;;2.82;91.66
69751;BME280;57335;52.288;6.056;2023-01-29T09:05:39;102710.75;;;2.85;91.79
69751;BME280;57335;52.288;6.056;2023-01-29T09:08:07;102713.50;;;2.95;91.57
69751;BME280;57335;52.288;6.056;2023-01-29T09:10:34;102701.47;;;2.94;90.61
69751;BME280;57335;52.288;6.056;2023-01-29T09:13:01;102694.81;;;3.03;91.22
69751;BME280;57335;52.288;6.056;2023-01-29T09:15:27;102697.19;;;3.06;90.24
69751;BME280;57335;52.288;6.056;2023-01-29T09:17:54;102705.34;;;3.12;90.45
69751;BME280;57335;52.288;6.056;2023-01-29T09:20:20;102712.09;;;3.15;90.33
69751;BME280;57335;52.288;6.056;2023-01-29T09:22:46;102710.41;;;3.14;89.95
69751;BME280;57335;52.288;6.056;2023-01-29T09:25:13;102715.53;;;3.27;90.54
69751;BME280;57335;52.288;6.056;2023-01-29T09:27:43;102707.88;;;3.25;90.20
69751;BME280;57335;52.288;6.056;2023-01-29T09:30:10;102710.94;;;3.30;90.00
69751;BME280;57335;52.288;6.056;2023-01-29T09:32:36;102720.66;;;3.39;90.03
69751;BME280;57335;52.288;6.056;2023-01-29T09:35:18;102724.88;;;3.40;88.49
69751;BME280;57335;52.288;6.056;2023-01-29T09:37:48;102723.00;;;3.43;89.47
69751;BME280;57335;52.288;6.056;2023-01-29T09:42:57;102723.16;;;3.41;88.24
69751;BME280;57335;52.288;6.056;2023-01-29T09:45:27;102720.91;;;3.48;89.63
69751;BME280;57335;52.288;6.056;2023-01-29T09:47:59;102717.72;;;3.44;87.64
69751;BME280;57335;52.288;6.056;2023-01-29T09:50:37;102708.50;;;3.40;88.27
69751;BME280;57335;52.288;6.056;2023-01-29T09:55:42;102716.09;;;3.43;88.37
69751;BME280;57335;52.288;6.056;2023-01-29T09:58:17;102718.13;;;3.51;88.83
69751;BME280;57335;52.288;6.056;2023-01-29T10:00:53;102710.09;;;3.54;87.38
69751;BME280;57335;52.288;6.056;2023-01-29T10:03:33;102710.59;;;3.59;88.85
69751;BME280;57335;52.288;6.056;2023-01-29T10:11:45;102702.81;;;3.59;87.21
69751;BME280;57335;52.288;6.056;2023-01-29T10:23:13;102690.25;;;3.77;87.78
69751;BME280;57335;52.288;6.056;2023-01-29T10:25:43;102685.63;;;3.80;87.42
69751;BME280;57335;52.288;6.056;2023-01-29T10:28:20;102668.78;;;3.75;85.99
69751;BME280;57335;52.288;6.056;2023-01-29T10:30:53;102666.06;;;3.76;86.79
69751;BME280;57335;52.288;6.056;2023-01-29T10:33:31;102664.66;;;3.84;86.61
69751;BME280;57335;52.288;6.056;2023-01-29T10:36:22;102680.94;;;3.86;86.25
69751;BME280;57335;52.288;6.056;2023-01-29T10:38:51;102663.25;;;3.91;87.05
69751;BME280;57335;52.288;6.056;2023-01-29T10:44:40;102652.75;;;3.92;86.20
69751;BME280;57335;52.288;6.056;2023-01-29T10:50:03;102649.13;;;3.95;86.54
69751;BME280;57335;52.288;6.056;2023-01-29T10:58:29;102644.06;;;3.93;86.33
69751;BME280;57335;52.288;6.056;2023-01-29T11:00:59;102641.44;;;3.93;86.16
69751;BME280;57335;52.288;6.056;2023-01-29T11:03:29;102614.09;;;3.89;86.72
69751;BME280;57335;52.288;6.056;2023-01-29T11:06:04;102625.78;;;3.95;86.34
69751;BME280;57335;52.288;6.056;2023-01-29T11:08:42;102612.91;;;3.93;86.56
69751;BME280;57335;52.288;6.056;2023-01-29T11:11:16;102614.44;;;3.96;85.85
69751;BME280;57335;52.288;6.056;2023-01-29T11:13:54;102596.66;;;3.91;86.19
69751;BME280;57335;52.288;6.056;2023-01-29T11:16:22;102584.00;;;3.87;86.51
69751;BME280;57335;52.288;6.056;2023-01-29T11:18:57;102601.25;;;3.99;86.76
69751;BME280;57335;52.288;6.056;2023-01-29T11:21:25;102596.88;;;3.99;86.48
69751;BME280;57335;52.288;6.056;2023-01-29T11:24:12;102591.31;;;4.04;86.57
69751;BME280;57335;52.288;6.056;2023-01-29T11:26:39;102594.88;;;4.03;86.66
69751;BME280;57335;52.288;6.056;2023-01-29T11:31:52;102593.09;;;3.92;86.14
69751;BME280;57335;52.288;6.056;2023-01-29T11:34:23;102599.09;;;3.93;85.42
69751;BME280;57335;52.288;6.056;2023-01-29T11:37:01;102585.81;;;3.97;86.74
69751;BME280;57335;52.288;6.056;2023-01-29T11:39:30;102593.31;;;4.00;87.32
69751;BME280;57335;52.288;6.056;2023-01-29T11:42:00;102585.91;;;3.96;86.59
69751;BME280;57335;52.288;6.056;2023-01-29T11:44:40;102585.09;;;3.95;86.89
69751;BME280;57335;52.288;6.056;2023-01-29T11:47:26;102581.78;;;3.93;87.29
69751;BME280;57335;52.288;6.056;2023-01-29T11:49:56;102577.44;;;3.94;87.75
69751;BME280;57335;52.288;6.056;2023-01-29T11:52:37;102569.63;;;3.94;87.67
69751;BME280;57335;52.288;6.056;2023-01-29T11:55:12;102563.53;;;3.95;87.72
69751;BME280;57335;52.288;6.056;2023-01-29T11:57:46;102561.84;;;3.94;88.49
69751;BME280;57335;52.288;6.056;2023-01-29T12:00:23;102554.91;;;3.94;88.15
69751;BME280;57335;52.288;6.056;2023-01-29T12:05:23;102551.50;;;3.94;88.32
69751;BME280;57335;52.288;6.056;2023-01-29T12:07:53;102546.19;;;3.95;88.60
69751;BME280;57335;52.288;6.056;2023-01-29T12:10:35;102526.72;;;3.90;88.77
69751;BME280;57335;52.288;6.056;2023-01-29T12:15:35;102528.38;;;3.91;90.20
69751;BME280;57335;52.288;6.056;2023-01-29T12:20:49;102517.06;;;3.92;90.29
69751;BME280;57335;52.288;6.056;2023-01-29T12:26:12;102518.00;;;3.91;90.32
69751;BME280;57335;52.288;6.056;2023-01-29T12:31:39;102506.09;;;3.88;90.88
69751;BME280;57335;52.288;6.056;2023-01-29T12:34:18;102494.78;;;3.89;90.89
69751;BME280;57335;52.288;6.056;2023-01-29T12:36:58;102491.72;;;3.84;91.46
69751;BME280;57335;52.288;6.056;2023-01-29T12:39:26;102484.75;;;3.85;91.69
69751;BME280;57335;52.288;6.056;2023-01-29T12:41:58;102478.97;;;3.92;91.51
69751;BME280;57335;52.288;6.056;2023-01-29T12:44:47;102468.84;;;3.89;91.09
69751;BME280;57335;52.288;6.056;2023-01-29T12:49:57;102460.00;;;3.92;91.75
69751;BME280;57335;52.288;6.056;2023-01-29T12:57:52;102435.00;;;3.91;93.19
69751;BME280;57335;52.288;6.056;2023-01-29T13:00:23;102435.84;;;3.91;92.56
69751;BME280;57335;52.288;6.056;2023-01-29T13:03:03;102414.50;;;3.88;92.78
69751;BME280;57335;52.288;6.056;2023-01-29T13:05:39;102424.38;;;3.94;93.49
69751;BME280;57335;52.288;6.056;2023-01-29T13:08:31;102419.31;;;3.92;94.06
69751;BME280;57335;52.288;6.056;2023-01-29T13:11:05;102415.22;;;3.90;93.80
69751;BME280;57335;52.288;6.056;2023-01-29T13:13:36;102412.16;;;3.85;93.98
69751;BME280;57335;52.288;6.056;2023-01-29T13:16:11;102405.06;;;3.87;95.15
69751;BME280;57335;52.288;6.056;2023-01-29T13:18:43;102396.72;;;3.83;94.92
69751;BME280;57335;52.288;6.056;2023-01-29T13:21:13;102382.84;;;3.73;95.29
69751;BME280;57335;52.288;6.056;2023-01-29T13:23:46;102384.09;;;3.78;96.11
69751;BME280;57335;52.288;6.056;2023-01-29T13:26:17;102378.84;;;3.69;95.99
69751;BME280;57335;52.288;6.056;2023-01-29T13:28:44;102368.72;;;3.66;96.18
69751;BME280;57335;52.288;6.056;2023-01-29T13:31:31;102385.31;;;3.74;96.23
69751;BME280;57335;52.288;6.056;2023-01-29T13:36:52;102376.13;;;3.70;96.43
69751;BME280;57335;52.288;6.056;2023-01-29T13:39:32;102373.66;;;3.69;96.02
69751;BME280;57335;52.288;6.056;2023-01-29T13:42:01;102352.34;;;3.65;96.73
69751;BME280;57335;52.288;6.056;2023-01-29T13:44:34;102356.47;;;3.68;96.42
69751;BME280;57335;52.288;6.056;2023-01-29T13:47:05;102352.34;;;3.65;96.51
69751;BME280;57335;52.288;6.056;2023-01-29T13:52:21;102348.28;;;3.84;95.98
69751;BME280;57335;52.288;6.056;2023-01-29T13:54:52;102342.63;;;3.78;96.02
69751;BME280;57335;52.288;6.056;2023-01-29T13:57:35;102344.47;;;3.88;95.61
69751;BME280;57335;52.288;6.056;2023-01-29T14:00:03;102319.44;;;3.77;95.29
69751;BME280;57335;52.288;6.056;2023-01-29T14:02:30;102334.00;;;3.89;95.34
69751;BME280;57335;52.288;6.056;2023-01-29T14:08:01;102338.41;;;3.98;95.18
69751;BME280;57335;52.288;6.056;2023-01-29T14:10:30;102330.28;;;4.03;95.45
69751;BME280;57335;52.288;6.056;2023-01-29T14:15:31;102325.97;;;4.13;93.85
69751;BME280;57335;52.288;6.056;2023-01-29T14:23:23;102299.63;;;4.18;93.87
69751;BME280;57335;52.288;6.056;2023-01-29T14:25:51;102304.00;;;4.17;93.54
69751;BME280;57335;52.288;6.056;2023-01-29T14:28:22;102309.63;;;4.23;93.61
69751;BME280;57335;52.288;6.056;2023-01-29T14:30:49;102308.00;;;4.22;93.04
69751;BME280;57335;52.288;6.056;2023-01-29T14:33:39;102303.88;;;4.19;92.51
69751;BME280;57335;52.288;6.056;2023-01-29T14:36:11;102305.81;;;4.27;93.04
69751;BME280;57335;52.288;6.056;2023-01-29T14:38:39;102311.97;;;4.26;92.85
69751;BME280;57335;52.288;6.056;2023-01-29T14:41:19;102293.97;;;4.13;92.29
69751;BME280;57335;52.288;6.056;2023-01-29T14:43:49;102301.97;;;4.21;92.92
69751;BME280;57335;52.288;6.056;2023-01-29T14:46:42;102303.88;;;4.19;92.88
69751;BME280;57335;52.288;6.056;2023-01-29T14:49:09;102294.69;;;4.15;91.99
69751;BME280;57335;52.288;6.056;2023-01-29T14:51:39;102297.16;;;4.16;92.78
69751;BME280;57335;52.288;6.056;2023-01-29T14:54:25;102278.69;;;4.10;92.98
69751;BME280;57335;52.288;6.056;2023-01-29T14:57:01;102285.84;;;4.17;92.82
69751;BME280;57335;52.288;6.056;2023-01-29T14:59:32;102281.16;;;4.11;92.77
69751;BME280;57335;52.288;6.056;2023-01-29T15:02:12;102268.00;;;4.03;92.75
69751;BME280;57335;52.288;6.056;2023-01-29T15:04:47;102266.34;;;4.02;92.76
69751;BME280;57335;52.288;6.056;2023-01-29T15:07:29;102272.63;;;3.99;91.95